Time;durP1;ratioP1;P1;durP2;ratioP2;P2;SDS_P1;SDS_P2;PMS_P1;PMS_P2;Temp;Humidity;BMP_temperature;BMP_pressure;BME280_temperature;BME280_humidity;BME280_pressure;Samples;Min_cycle;Max_cycle;Signal;HPM_P1;HPM_P2
2023/03/27 00:00:00;;;;;;;2.1;2.1;;;;;;;3.1;100.0;101250;;;;
2023/03/27 00:01:00;;;;;;;2.1;2.1;;;;;;;3.1;100.0;101250;;;;
2023/03/27 00:02:00;;;;;;;2.2;2.2;;;;;;;3.2;100.0;101250;;;;
2023/03/27 00:03:00;;;;;;;2.2;2.2;;;;;;;3.2;100.0;101250;;;;
2023/03/27 00:04:00;;;;;;;2.2;2.2;;;;;;;3.1;100.0;101260;;;;
2023/03/27 00:05:00;;;;;;;2.2;2.2;;;;;;;3.1;100.0;101260;;;;
2023/03/27 00:06:01;;;;;;;2.2;2.2;;;;;;;3.1;100.0;101260;;;;
2023/03/27 00:07:00;;;;;;;2.2;2.2;;;;;;;3.1;100.0;101260;;;;
2023/03/27 00:08:00;;;;;;;2.2;2.2;;;;;;;3.1;100.0;101260;;;;
2023/03/27 00:09:02;;;;;;;2.2;2.2;;;;;;;3.1;100.0;101260;;;;
2023/03/27 00:10:00;;;;;;;2.2;2.2;;;;;;;3.0;100.0;101270;;;;
2023/03/27 00:11:00;;;;;;;2.2;2.2;;;;;;;3.0;100.0;101270;;;;
2023/03/27 00:12:01;;;;;;;2.2;2.2;;;;;;;3.1;100.0;101260;;;;
2023/03/27 00:13:02;;;;;;;2.2;2.2;;;;;;;3.1;100.0;101260;;;;
2023/03/27 00:14:00;;;;;;;2.2;2.2;;;;;;;3.0;100.0;101270;;;;
2023/03/27 00:15:00;;;;;;;2.2;2.2;;;;;;;3.0;100.0;101270;;;;
2023/03/27 00:16:01;;;;;;;2.2;2.2;;;;;;;2.9;100.0;101280;;;;
2023/03/27 00:17:01;;;;;;;2.2;2.2;;;;;;;2.9;100.0;101280;;;;
2023/03/27 00:18:03;;;;;;;2.2;2.2;;;;;;;3.0;100.0;101280;;;;
2023/03/27 00:19:00;;;;;;;2.2;2.2;;;;;;;3.0;100.0;101280;;;;
2023/03/27 00:20:00;;;;;;;2.2;2.2;;;;;;;3.0;100.0;101280;;;;
2023/03/27 00:21:01;;;;;;;2.2;2.2;;;;;;;3.0;100.0;101280;;;;
2023/03/27 00:22:00;;;;;;;2.2;2.2;;;;;;;3.0;100.0;101280;;;;
2023/03/27 00:23:01;;;;;;;2.2;2.2;;;;;;;3.0;100.0;101280;;;;
2023/03/27 00:24:00;;;;;;;2.2;2.2;;;;;;;3.0;100.0;101290;;;;
2023/03/27 00:25:00;;;;;;;2.2;2.2;;;;;;;3.0;100.0;101290;;;;
2023/03/27 00:26:00;;;;;;;2.2;2.2;;;;;;;2.9;100.0;101300;;;;
2023/03/27 00:27:00;;;;;;;2.2;2.2;;;;;;;2.9;100.0;101300;;;;
2023/03/27 00:28:00;;;;;;;2.2;2.2;;;;;;;3.0;100.0;101290;;;;
2023/03/27 00:29:00;;;;;;;2.2;2.2;;;;;;;3.0;100.0;101290;;;;
2023/03/27 00:30:00;;;;;;;2.2;2.2;;;;;;;2.9;100.0;101300;;;;
2023/03/27 00:31:01;;;;;;;2.2;2.2;;;;;;;2.9;100.0;101300;;;;
2023/03/27 00:32:00;;;;;;;2.2;2.2;;;;;;;3.0;100.0;101300;;;;
2023/03/27 00:33:00;;;;;;;2.2;2.2;;;;;;;3.0;100.0;101300;;;;
2023/03/27 00:34:00;;;;;;;2.2;2.2;;;;;;;2.9;100.0;101300;;;;
2023/03/27 00:35:00;;;;;;;2.2;2.2;;;;;;;2.9;100.0;101300;;;;
2023/03/27 00:36:00;;;;;;;2.2;2.2;;;;;;;2.9;100.0;101300;;;;
2023/03/27 00:37:00;;;;;;;2.2;2.2;;;;;;;2.9;100.0;101300;;;;
2023/03/27 00:38:00;;;;;;;2.2;2.2;;;;;;;2.9;100.0;101300;;;;
2023/03/27 00:39:00;;;;;;;2.2;2.2;;;;;;;2.9;100.0;101300;;;;
2023/03/27 00:40:00;;;;;;;2.2;2.2;;;;;;;2.9;100.0;101310;;;;
2023/03/27 00:41:01;;;;;;;2.2;2.2;;;;;;;2.9;100.0;101310;;;;
2023/03/27 00:42:00;;;;;;;2.7;2.6;;;;;;;2.9;100.0;101310;;;;
2023/03/27 00:43:00;;;;;;;2.7;2.6;;;;;;;2.9;100.0;101310;;;;
2023/03/27 00:44:02;;;;;;;2.7;2.6;;;;;;;2.9;100.0;101310;;;;
2023/03/27 00:45:00;;;;;;;2.7;2.6;;;;;;;2.9;100.0;101310;;;;
2023/03/27 00:46:00;;;;;;;2.7;2.6;;;;;;;2.9;100.0;101310;;;;
2023/03/27 00:47:01;;;;;;;2.7;2.6;;;;;;;2.9;100.0;101310;;;;
2023/03/27 00:48:03;;;;;;;2.7;2.6;;;;;;;3.0;100.0;101320;;;;
2023/03/27 00:49:02;;;;;;;2.7;2.6;;;;;;;3.0;100.0;101320;;;;
2023/03/27 00:50:02;;;;;;;2.7;2.6;;;;;;;3.0;100.0;101320;;;;
2023/03/27 00:51:01;;;;;;;2.7;2.6;;;;;;;3.0;100.0;101320;;;;
2023/03/27 00:52:01;;;;;;;2.7;2.6;;;;;;;3.0;100.0;101320;;;;
2023/03/27 00:53:03;;;;;;;2.7;2.6;;;;;;;3.0;100.0;101320;;;;
2023/03/27 00:54:00;;;;;;;2.7;2.6;;;;;;;3.0;100.0;101320;;;;
2023/03/27 00:55:03;;;;;;;2.7;2.6;;;;;;;3.0;100.0;101320;;;;
2023/03/27 00:56:02;;;;;;;2.7;2.6;;;;;;;3.0;100.0;101320;;;;
2023/03/27 00:57:02;;;;;;;2.7;2.6;;;;;;;3.0;100.0;101320;;;;
2023/03/27 00:58:02;;;;;;;2.7;2.6;;;;;;;3.0;100.0;101320;;;;
2023/03/27 00:59:01;;;;;;;2.7;2.6;;;;;;;3.0;100.0;101320;;;;
2023/03/27 01:00:01;;;;;;;2.7;2.6;;;;;;;3.1;100.0;101330;;;;
2023/03/27 01:01:00;;;;;;;2.3;2.3;;;;;;;3.1;100.0;101330;;;;
2023/03/27 01:02:02;;;;;;;2.3;2.3;;;;;;;3.2;100.0;101330;;;;
2023/03/27 01:03:03;;;;;;;2.3;2.3;;;;;;;3.2;100.0;101330;;;;
2023/03/27 01:04:01;;;;;;;2.3;2.3;;;;;;;3.1;100.0;101330;;;;
2023/03/27 01:05:00;;;;;;;2.3;2.3;;;;;;;3.1;100.0;101330;;;;
2023/03/27 01:06:01;;;;;;;2.3;2.3;;;;;;;3.1;100.0;101330;;;;
2023/03/27 01:07:02;;;;;;;2.3;2.3;;;;;;;3.1;100.0;101330;;;;
2023/03/27 01:08:02;;;;;;;2.3;2.3;;;;;;;3.2;100.0;101330;;;;
2023/03/27 01:09:00;;;;;;;2.3;2.3;;;;;;;3.2;100.0;101330;;;;
2023/03/27 01:10:00;;;;;;;2.3;2.3;;;;;;;3.2;100.0;101340;;;;
2023/03/27 01:11:00;;;;;;;2.3;2.3;;;;;;;3.2;100.0;101340;;;;
2023/03/27 01:12:00;;;;;;;2.3;2.3;;;;;;;3.2;100.0;101340;;;;
2023/03/27 01:13:10;;;;;;;2.3;2.3;;;;;;;3.2;100.0;101340;;;;
2023/03/27 01:14:10;;;;;;;2.3;2.3;;;;;;;3.1;100.0;101340;;;;
2023/03/27 01:15:10;;;;;;;2.3;2.3;;;;;;;3.1;100.0;101340;;;;
2023/03/27 01:16:06;;;;;;;2.3;2.3;;;;;;;3.1;100.0;101340;;;;
2023/03/27 01:17:10;;;;;;;2.3;2.3;;;;;;;3.1;100.0;101340;;;;
2023/03/27 01:18:07;;;;;;;2.3;2.3;;;;;;;3.2;100.0;101340;;;;
2023/03/27 01:19:10;;;;;;;2.3;2.3;;;;;;;3.2;100.0;101340;;;;
2023/03/27 01:20:12;;;;;;;2.3;2.3;;;;;;;3.2;100.0;101340;;;;
2023/03/27 01:21:10;;;;;;;2.4;2.4;;;;;;;3.2;100.0;101340;;;;
2023/03/27 01:22:10;;;;;;;2.4;2.4;;;;;;;3.3;100.0;101350;;;;
2023/03/27 01:23:10;;;;;;;2.4;2.4;;;;;;;3.3;100.0;101350;;;;
2023/03/27 01:24:01;;;;;;;2.4;2.4;;;;;;;3.3;100.0;101350;;;;
2023/03/27 01:25:10;;;;;;;2.4;2.4;;;;;;;3.3;100.0;101350;;;;
2023/03/27 01:26:10;;;;;;;2.4;2.4;;;;;;;3.3;100.0;101350;;;;
2023/03/27 01:27:02;;;;;;;2.4;2.4;;;;;;;3.3;100.0;101350;;;;
2023/03/27 01:28:01;;;;;;;2.4;2.4;;;;;;;3.4;100.0;101350;;;;
2023/03/27 01:29:07;;;;;;;2.4;2.4;;;;;;;3.4;100.0;101350;;;;
2023/03/27 01:30:05;;;;;;;2.4;2.4;;;;;;;3.5;100.0;101350;;;;
2023/03/27 01:31:09;;;;;;;2.4;2.4;;;;;;;3.5;100.0;101350;;;;
2023/03/27 01:32:10;;;;;;;2.4;2.4;;;;;;;3.5;100.0;101350;;;;
2023/03/27 01:33:00;;;;;;;2.4;2.4;;;;;;;3.5;100.0;101350;;;;
2023/03/27 01:34:00;;;;;;;2.4;2.4;;;;;;;3.5;100.0;101360;;;;
2023/03/27 01:35:03;;;;;;;2.4;2.4;;;;;;;3.5;100.0;101360;;;;
2023/03/27 01:36:00;;;;;;;2.4;2.4;;;;;;;3.5;100.0;101360;;;;
2023/03/27 01:37:01;;;;;;;2.4;2.4;;;;;;;3.5;100.0;101360;;;;
2023/03/27 01:38:09;;;;;;;2.4;2.4;;;;;;;3.5;100.0;101370;;;;
2023/03/27 01:39:08;;;;;;;2.4;2.4;;;;;;;3.5;100.0;101370;;;;
2023/03/27 01:40:03;;;;;;;2.4;2.4;;;;;;;3.5;100.0;101370;;;;
2023/03/27 01:41:05;;;;;;;2.6;2.5;;;;;;;3.5;100.0;101370;;;;
2023/03/27 01:42:08;;;;;;;2.6;2.5;;;;;;;3.5;100.0;101370;;;;
2023/03/27 01:43:03;;;;;;;2.6;2.5;;;;;;;3.5;100.0;101370;;;;
2023/03/27 01:44:03;;;;;;;2.6;2.5;;;;;;;3.5;100.0;101380;;;;
2023/03/27 01:45:03;;;;;;;2.6;2.5;;;;;;;3.5;100.0;101380;;;;
2023/03/27 01:46:06;;;;;;;2.6;2.5;;;;;;;3.4;100.0;101380;;;;
2023/03/27 01:47:06;;;;;;;2.6;2.5;;;;;;;3.4;100.0;101380;;;;
2023/03/27 01:48:05;;;;;;;2.6;2.5;;;;;;;3.5;100.0;101380;;;;
2023/03/27 01:49:05;;;;;;;2.6;2.5;;;;;;;3.5;100.0;101380;;;;
2023/03/27 01:50:07;;;;;;;2.6;2.5;;;;;;;3.6;100.0;101380;;;;
2023/03/27 01:51:07;;;;;;;2.6;2.5;;;;;;;3.6;100.0;101380;;;;
2023/03/27 01:52:03;;;;;;;2.6;2.5;;;;;;;3.5;100.0;101380;;;;
2023/03/27 01:53:04;;;;;;;2.6;2.5;;;;;;;3.5;100.0;101380;;;;
2023/03/27 01:54:03;;;;;;;2.6;2.5;;;;;;;3.6;100.0;101380;;;;
2023/03/27 01:55:03;;;;;;;2.6;2.5;;;;;;;3.6;100.0;101380;;;;
2023/03/27 01:56:09;;;;;;;2.6;2.5;;;;;;;3.6;100.0;101380;;;;
2023/03/27 01:57:07;;;;;;;2.6;2.5;;;;;;;3.6;100.0;101380;;;;
2023/03/27 01:58:03;;;;;;;2.6;2.5;;;;;;;3.6;100.0;101390;;;;
2023/03/27 01:59:05;;;;;;;2.6;2.5;;;;;;;3.6;100.0;101390;;;;
2023/03/27 02:00:16;;;;;;;2.6;2.5;;;;;;;3.6;100.0;101390;;;;
2023/03/27 02:01:00;;;;;;;1.9;1.9;;;;;;;3.6;100.0;101390;;;;
2023/03/27 02:02:02;;;;;;;1.9;1.9;;;;;;;3.6;100.0;101400;;;;
2023/03/27 02:03:08;;;;;;;1.9;1.9;;;;;;;3.6;100.0;101400;;;;
2023/03/27 02:04:01;;;;;;;1.9;1.9;;;;;;;3.6;100.0;101390;;;;
2023/03/27 02:05:04;;;;;;;1.9;1.9;;;;;;;3.6;100.0;101390;;;;
2023/03/27 02:06:01;;;;;;;1.9;1.9;;;;;;;3.7;100.0;101390;;;;
2023/03/27 02:07:03;;;;;;;1.9;1.9;;;;;;;3.7;100.0;101390;;;;
2023/03/27 02:08:06;;;;;;;1.9;1.9;;;;;;;3.7;100.0;101400;;;;
2023/03/27 02:09:04;;;;;;;1.9;1.9;;;;;;;3.7;100.0;101400;;;;
2023/03/27 02:10:02;;;;;;;1.9;1.9;;;;;;;3.8;100.0;101400;;;;
2023/03/27 02:11:00;;;;;;;1.9;1.9;;;;;;;3.8;100.0;101400;;;;
2023/03/27 02:12:03;;;;;;;1.9;1.9;;;;;;;3.7;100.0;101400;;;;
2023/03/27 02:13:05;;;;;;;1.9;1.9;;;;;;;3.7;100.0;101400;;;;
2023/03/27 02:14:05;;;;;;;1.9;1.9;;;;;;;3.7;100.0;101400;;;;
2023/03/27 02:15:20;;;;;;;1.9;1.9;;;;;;;3.7;100.0;101400;;;;
2023/03/27 02:16:02;;;;;;;1.9;1.9;;;;;;;3.7;100.0;101410;;;;
2023/03/27 02:17:06;;;;;;;1.9;1.9;;;;;;;3.7;100.0;101410;;;;
2023/03/27 02:18:04;;;;;;;1.9;1.9;;;;;;;3.7;100.0;101410;;;;
2023/03/27 02:19:03;;;;;;;1.9;1.9;;;;;;;3.7;100.0;101410;;;;
2023/03/27 02:20:13;;;;;;;1.9;1.9;;;;;;;3.8;100.0;101410;;;;
2023/03/27 02:21:01;;;;;;;2.4;2.4;;;;;;;3.8;100.0;101410;;;;
2023/03/27 02:22:01;;;;;;;2.4;2.4;;;;;;;3.9;100.0;101420;;;;
2023/03/27 02:23:00;;;;;;;2.4;2.4;;;;;;;3.9;100.0;101420;;;;
2023/03/27 02:24:00;;;;;;;2.4;2.4;;;;;;;3.7;100.0;101430;;;;
2023/03/27 02:25:00;;;;;;;2.4;2.4;;;;;;;3.7;100.0;101430;;;;
2023/03/27 02:26:00;;;;;;;2.4;2.4;;;;;;;3.8;100.0;101430;;;;
2023/03/27 02:27:11;;;;;;;2.4;2.4;;;;;;;3.8;100.0;101430;;;;
2023/03/27 02:28:00;;;;;;;2.4;2.4;;;;;;;3.7;100.0;101430;;;;
2023/03/27 02:29:07;;;;;;;2.4;2.4;;;;;;;3.7;100.0;101430;;;;
2023/03/27 02:30:10;;;;;;;2.4;2.4;;;;;;;3.8;100.0;101440;;;;
2023/03/27 02:31:15;;;;;;;2.4;2.4;;;;;;;3.8;100.0;101440;;;;
2023/03/27 02:32:10;;;;;;;2.4;2.4;;;;;;;3.9;100.0;101440;;;;
2023/03/27 02:33:07;;;;;;;2.4;2.4;;;;;;;3.9;100.0;101440;;;;
2023/03/27 02:34:10;;;;;;;2.4;2.4;;;;;;;3.8;100.0;101440;;;;
2023/03/27 02:35:02;;;;;;;2.4;2.4;;;;;;;3.8;100.0;101440;;;;
2023/03/27 02:36:11;;;;;;;2.4;2.4;;;;;;;3.8;100.0;101440;;;;
2023/03/27 02:37:14;;;;;;;2.4;2.4;;;;;;;3.8;100.0;101440;;;;
2023/03/27 02:38:07;;;;;;;2.4;2.4;;;;;;;3.8;100.0;101440;;;;
2023/03/27 02:39:01;;;;;;;2.4;2.4;;;;;;;3.8;100.0;101440;;;;
2023/03/27 02:40:09;;;;;;;2.4;2.4;;;;;;;3.8;100.0;101440;;;;
2023/03/27 02:41:03;;;;;;;2.2;2.2;;;;;;;3.8;100.0;101440;;;;
2023/03/27 02:42:04;;;;;;;2.2;2.2;;;;;;;3.7;100.0;101440;;;;
2023/03/27 02:43:06;;;;;;;2.2;2.2;;;;;;;3.7;100.0;101440;;;;
2023/03/27 02:44:09;;;;;;;2.2;2.2;;;;;;;3.8;100.0;101440;;;;
2023/03/27 02:45:10;;;;;;;2.2;2.2;;;;;;;3.8;100.0;101440;;;;
2023/03/27 02:46:07;;;;;;;2.2;2.2;;;;;;;3.7;100.0;101450;;;;
2023/03/27 02:47:10;;;;;;;2.2;2.2;;;;;;;3.7;100.0;101450;;;;
2023/03/27 02:48:05;;;;;;;2.2;2.2;;;;;;;3.7;100.0;101450;;;;
2023/03/27 02:49:04;;;;;;;2.2;2.2;;;;;;;3.7;100.0;101450;;;;
2023/03/27 02:50:08;;;;;;;2.2;2.2;;;;;;;3.7;100.0;101460;;;;
2023/03/27 02:51:03;;;;;;;2.2;2.2;;;;;;;3.7;100.0;101460;;;;
2023/03/27 02:52:05;;;;;;;2.2;2.2;;;;;;;3.5;100.0;101460;;;;
2023/03/27 02:53:01;;;;;;;2.2;2.2;;;;;;;3.5;100.0;101460;;;;
2023/03/27 02:54:03;;;;;;;2.2;2.2;;;;;;;3.5;100.0;101450;;;;
2023/03/27 02:55:06;;;;;;;2.2;2.2;;;;;;;3.5;100.0;101450;;;;
2023/03/27 02:56:02;;;;;;;2.2;2.2;;;;;;;3.5;100.0;101460;;;;
2023/03/27 02:57:04;;;;;;;2.2;2.2;;;;;;;3.5;100.0;101460;;;;
2023/03/27 02:58:04;;;;;;;2.2;2.2;;;;;;;3.4;100.0;101460;;;;
2023/03/27 02:59:02;;;;;;;2.2;2.2;;;;;;;3.4;100.0;101460;;;;
2023/03/27 03:00:21;;;;;;;2.2;2.2;;;;;;;3.3;100.0;101460;;;;
2023/03/27 03:01:01;;;;;;;2.0;2.0;;;;;;;3.3;100.0;101460;;;;
2023/03/27 03:02:02;;;;;;;2.0;2.0;;;;;;;3.3;100.0;101470;;;;
2023/03/27 03:03:09;;;;;;;2.0;2.0;;;;;;;3.3;100.0;101470;;;;
2023/03/27 03:04:10;;;;;;;2.0;2.0;;;;;;;3.3;100.0;101470;;;;
2023/03/27 03:05:04;;;;;;;2.0;2.0;;;;;;;3.3;100.0;101470;;;;
2023/03/27 03:06:05;;;;;;;2.0;2.0;;;;;;;3.3;100.0;101480;;;;
2023/03/27 03:07:05;;;;;;;2.0;2.0;;;;;;;3.3;100.0;101480;;;;
2023/03/27 03:29:03;;;;;;;2.7;2.6;;;;;;;2.9;100.0;101500;;;;
2023/03/27 03:30:00;;;;;;;2.7;2.6;;;;;;;2.9;100.0;101500;;;;
2023/03/27 03:31:02;;;;;;;2.7;2.6;;;;;;;2.9;100.0;101500;;;;
2023/03/27 03:32:00;;;;;;;2.7;2.6;;;;;;;2.9;100.0;101500;;;;
2023/03/27 03:33:00;;;;;;;2.7;2.6;;;;;;;2.9;100.0;101500;;;;
2023/03/27 03:34:01;;;;;;;2.7;2.6;;;;;;;2.8;100.0;101500;;;;
2023/03/27 03:35:00;;;;;;;2.7;2.6;;;;;;;2.8;100.0;101500;;;;
2023/03/27 03:36:00;;;;;;;2.7;2.6;;;;;;;2.8;100.0;101510;;;;
2023/03/27 03:37:00;;;;;;;2.7;2.6;;;;;;;2.8;100.0;101510;;;;
2023/03/27 03:38:00;;;;;;;2.7;2.6;;;;;;;2.7;100.0;101510;;;;
2023/03/27 03:39:00;;;;;;;2.7;2.6;;;;;;;2.7;100.0;101510;;;;
2023/03/27 03:40:00;;;;;;;2.7;2.6;;;;;;;2.7;100.0;101520;;;;
2023/03/27 03:41:00;;;;;;;2.7;2.6;;;;;;;2.7;100.0;101520;;;;
2023/03/27 03:42:00;;;;;;;2.7;2.6;;;;;;;2.7;100.0;101520;;;;
2023/03/27 03:43:00;;;;;;;2.7;2.6;;;;;;;2.7;100.0;101520;;;;
2023/03/27 03:44:00;;;;;;;2.7;2.6;;;;;;;2.7;100.0;101520;;;;
2023/03/27 03:45:00;;;;;;;2.7;2.6;;;;;;;2.7;100.0;101520;;;;
2023/03/27 03:46:00;;;;;;;2.7;2.6;;;;;;;2.7;100.0;101520;;;;
2023/03/27 03:47:00;;;;;;;2.7;2.6;;;;;;;2.7;100.0;101520;;;;
2023/03/27 03:48:00;;;;;;;2.7;2.6;;;;;;;2.7;100.0;101530;;;;
2023/03/27 03:49:00;;;;;;;2.7;2.6;;;;;;;2.7;100.0;101530;;;;
2023/03/27 03:50:00;;;;;;;2.7;2.6;;;;;;;2.6;100.0;101540;;;;
2023/03/27 03:51:00;;;;;;;2.7;2.6;;;;;;;2.6;100.0;101540;;;;
2023/03/27 03:52:04;;;;;;;2.7;2.6;;;;;;;2.6;100.0;101540;;;;
2023/03/27 03:53:00;;;;;;;2.7;2.6;;;;;;;2.6;100.0;101540;;;;
2023/03/27 03:54:00;;;;;;;2.7;2.6;;;;;;;2.6;100.0;101540;;;;
2023/03/27 03:55:00;;;;;;;2.7;2.6;;;;;;;2.6;100.0;101540;;;;
2023/03/27 03:56:00;;;;;;;2.7;2.6;;;;;;;2.6;100.0;101540;;;;
2023/03/27 03:57:01;;;;;;;2.7;2.6;;;;;;;2.6;100.0;101540;;;;
2023/03/27 03:58:00;;;;;;;2.7;2.6;;;;;;;2.5;100.0;101540;;;;
2023/03/27 03:59:00;;;;;;;2.7;2.6;;;;;;;2.5;100.0;101540;;;;
2023/03/27 04:00:00;;;;;;;2.7;2.6;;;;;;;2.5;100.0;101540;;;;
2023/03/27 04:01:01;;;;;;;2.3;2.3;;;;;;;2.5;100.0;101540;;;;
2023/03/27 04:02:00;;;;;;;2.3;2.3;;;;;;;2.6;100.0;101540;;;;
2023/03/27 04:03:00;;;;;;;2.3;2.3;;;;;;;2.6;100.0;101540;;;;
2023/03/27 04:04:01;;;;;;;2.3;2.3;;;;;;;2.5;100.0;101550;;;;
2023/03/27 04:05:09;;;;;;;2.3;2.3;;;;;;;2.5;100.0;101550;;;;
2023/03/27 04:06:03;;;;;;;2.3;2.3;;;;;;;2.5;100.0;101550;;;;
2023/03/27 04:07:00;;;;;;;2.3;2.3;;;;;;;2.5;100.0;101550;;;;
2023/03/27 04:08:01;;;;;;;2.3;2.3;;;;;;;2.6;100.0;101550;;;;
2023/03/27 04:09:00;;;;;;;2.3;2.3;;;;;;;2.6;100.0;101550;;;;
2023/03/27 04:10:01;;;;;;;2.3;2.3;;;;;;;2.5;100.0;101550;;;;
2023/03/27 04:11:00;;;;;;;2.3;2.3;;;;;;;2.5;100.0;101550;;;;
2023/03/27 04:12:00;;;;;;;2.3;2.3;;;;;;;2.5;100.0;101560;;;;
2023/03/27 04:13:00;;;;;;;2.3;2.3;;;;;;;2.5;100.0;101560;;;;
2023/03/27 04:14:00;;;;;;;2.3;2.3;;;;;;;2.5;100.0;101560;;;;
2023/03/27 04:15:00;;;;;;;2.3;2.3;;;;;;;2.5;100.0;101560;;;;
2023/03/27 04:16:00;;;;;;;2.3;2.3;;;;;;;2.5;100.0;101570;;;;
2023/03/27 04:17:00;;;;;;;2.3;2.3;;;;;;;2.5;100.0;101570;;;;
2023/03/27 04:18:00;;;;;;;2.3;2.3;;;;;;;2.4;100.0;101570;;;;
2023/03/27 04:19:01;;;;;;;2.3;2.3;;;;;;;2.4;100.0;101570;;;;
2023/03/27 04:20:01;;;;;;;2.3;2.3;;;;;;;2.4;100.0;101570;;;;
2023/03/27 04:21:00;;;;;;;2.8;2.7;;;;;;;2.4;100.0;101570;;;;
2023/03/27 04:22:01;;;;;;;2.8;2.7;;;;;;;2.4;100.0;101570;;;;
2023/03/27 04:23:01;;;;;;;2.8;2.7;;;;;;;2.4;100.0;101570;;;;
2023/03/27 04:24:01;;;;;;;2.8;2.7;;;;;;;2.4;100.0;101570;;;;
2023/03/27 04:25:01;;;;;;;2.8;2.7;;;;;;;2.4;100.0;101570;;;;
2023/03/27 04:26:02;;;;;;;2.8;2.7;;;;;;;2.3;100.0;101570;;;;
2023/03/27 04:27:00;;;;;;;2.8;2.7;;;;;;;2.3;100.0;101570;;;;
2023/03/27 04:28:01;;;;;;;2.8;2.7;;;;;;;2.3;100.0;101580;;;;
2023/03/27 04:29:00;;;;;;;2.8;2.7;;;;;;;2.3;100.0;101580;;;;
2023/03/27 04:30:01;;;;;;;2.8;2.7;;;;;;;2.3;100.0;101580;;;;
2023/03/27 04:31:05;;;;;;;2.8;2.7;;;;;;;2.3;100.0;101580;;;;
2023/03/27 04:32:00;;;;;;;2.8;2.7;;;;;;;2.3;100.0;101580;;;;
2023/03/27 04:33:00;;;;;;;2.8;2.7;;;;;;;2.3;100.0;101580;;;;
2023/03/27 04:34:00;;;;;;;2.8;2.7;;;;;;;2.3;100.0;101590;;;;
2023/03/27 04:35:00;;;;;;;2.8;2.7;;;;;;;2.3;100.0;101590;;;;
2023/03/27 04:36:07;;;;;;;2.8;2.7;;;;;;;2.3;100.0;101590;;;;
2023/03/27 04:37:01;;;;;;;2.8;2.7;;;;;;;2.3;100.0;101590;;;;
2023/03/27 04:38:01;;;;;;;2.8;2.7;;;;;;;2.3;100.0;101600;;;;
2023/03/27 04:39:01;;;;;;;2.8;2.7;;;;;;;2.3;100.0;101600;;;;
2023/03/27 04:40:00;;;;;;;2.4;2.4;;;;;;;2.3;100.0;101610;;;;
2023/03/27 04:41:00;;;;;;;2.4;2.4;;;;;;;2.3;100.0;101610;;;;
2023/03/27 04:42:01;;;;;;;2.4;2.4;;;;;;;2.2;100.0;101600;;;;
2023/03/27 04:43:00;;;;;;;2.4;2.4;;;;;;;2.2;100.0;101600;;;;
2023/03/27 04:44:00;;;;;;;2.4;2.4;;;;;;;2.3;100.0;101610;;;;
2023/03/27 04:45:00;;;;;;;2.4;2.4;;;;;;;2.3;100.0;101610;;;;
2023/03/27 04:46:00;;;;;;;2.4;2.4;;;;;;;2.2;100.0;101620;;;;
2023/03/27 04:47:01;;;;;;;2.4;2.4;;;;;;;2.2;100.0;101620;;;;
2023/03/27 04:48:00;;;;;;;2.4;2.4;;;;;;;2.3;100.0;101620;;;;
2023/03/27 04:49:00;;;;;;;2.4;2.4;;;;;;;2.3;100.0;101620;;;;
2023/03/27 04:50:00;;;;;;;2.4;2.4;;;;;;;2.3;100.0;101620;;;;
2023/03/27 04:51:00;;;;;;;2.4;2.4;;;;;;;2.3;100.0;101620;;;;
2023/03/27 04:52:00;;;;;;;2.4;2.4;;;;;;;2.3;100.0;101620;;;;
2023/03/27 04:53:00;;;;;;;2.4;2.4;;;;;;;2.3;100.0;101620;;;;
2023/03/27 04:54:03;;;;;;;2.4;2.4;;;;;;;2.2;100.0;101620;;;;
2023/03/27 04:55:00;;;;;;;2.4;2.4;;;;;;;2.2;100.0;101620;;;;
2023/03/27 04:56:00;;;;;;;2.4;2.4;;;;;;;2.3;100.0;101620;;;;
2023/03/27 04:57:00;;;;;;;2.4;2.4;;;;;;;2.3;100.0;101620;;;;
2023/03/27 04:58:01;;;;;;;2.4;2.4;;;;;;;2.2;100.0;101620;;;;
2023/03/27 04:59:02;;;;;;;2.4;2.4;;;;;;;2.2;100.0;101620;;;;
2023/03/27 05:00:00;;;;;;;2.4;2.4;;;;;;;2.3;100.0;101630;;;;
2023/03/27 05:01:01;;;;;;;2.4;2.4;;;;;;;2.3;100.0;101630;;;;
2023/03/27 05:02:01;;;;;;;2.4;2.4;;;;;;;2.2;100.0;101630;;;;
2023/03/27 05:03:00;;;;;;;2.4;2.4;;;;;;;2.2;100.0;101630;;;;
2023/03/27 05:04:01;;;;;;;2.4;2.4;;;;;;;2.3;100.0;101640;;;;
2023/03/27 05:05:00;;;;;;;2.4;2.4;;;;;;;2.3;100.0;101640;;;;
2023/03/27 05:06:02;;;;;;;2.4;2.4;;;;;;;2.2;100.0;101640;;;;
2023/03/27 05:07:02;;;;;;;2.4;2.4;;;;;;;2.2;100.0;101640;;;;
2023/03/27 05:08:00;;;;;;;2.4;2.4;;;;;;;2.2;100.0;101640;;;;
2023/03/27 05:09:00;;;;;;;2.4;2.4;;;;;;;2.2;100.0;101640;;;;
2023/03/27 05:10:01;;;;;;;2.4;2.4;;;;;;;2.2;100.0;101640;;;;
2023/03/27 05:11:00;;;;;;;2.4;2.4;;;;;;;2.2;100.0;101640;;;;
2023/03/27 05:12:00;;;;;;;2.4;2.4;;;;;;;2.2;100.0;101650;;;;
2023/03/27 05:13:00;;;;;;;2.4;2.4;;;;;;;2.2;100.0;101650;;;;
2023/03/27 05:14:00;;;;;;;2.4;2.4;;;;;;;2.1;100.0;101650;;;;
2023/03/27 05:15:04;;;;;;;2.4;2.4;;;;;;;2.1;100.0;101650;;;;
2023/03/27 05:16:00;;;;;;;2.4;2.4;;;;;;;2.2;100.0;101650;;;;
2023/03/27 05:17:00;;;;;;;2.4;2.4;;;;;;;2.2;100.0;101650;;;;
2023/03/27 05:18:01;;;;;;;2.4;2.4;;;;;;;2.1;100.0;101660;;;;
2023/03/27 05:19:02;;;;;;;2.4;2.4;;;;;;;2.1;100.0;101660;;;;
2023/03/27 05:20:00;;;;;;;2.7;2.6;;;;;;;2.1;100.0;101660;;;;
2023/03/27 05:21:00;;;;;;;2.7;2.6;;;;;;;2.1;100.0;101660;;;;
2023/03/27 05:22:00;;;;;;;2.7;2.6;;;;;;;2.1;100.0;101660;;;;
2023/03/27 05:23:00;;;;;;;2.7;2.6;;;;;;;2.1;100.0;101660;;;;
2023/03/27 05:24:00;;;;;;;2.7;2.6;;;;;;;2.1;100.0;101660;;;;
2023/03/27 05:25:00;;;;;;;2.7;2.6;;;;;;;2.1;100.0;101660;;;;
2023/03/27 05:26:01;;;;;;;2.7;2.6;;;;;;;2.1;100.0;101660;;;;
2023/03/27 05:27:00;;;;;;;2.7;2.6;;;;;;;2.1;100.0;101660;;;;
2023/03/27 05:28:00;;;;;;;2.7;2.6;;;;;;;2.1;100.0;101670;;;;
2023/03/27 05:29:00;;;;;;;2.7;2.6;;;;;;;2.1;100.0;101670;;;;
2023/03/27 05:30:00;;;;;;;2.7;2.6;;;;;;;2.0;100.0;101670;;;;
2023/03/27 05:31:00;;;;;;;2.7;2.6;;;;;;;2.0;100.0;101670;;;;
2023/03/27 05:32:01;;;;;;;2.7;2.6;;;;;;;2.0;100.0;101670;;;;
2023/03/27 05:33:00;;;;;;;2.7;2.6;;;;;;;2.0;100.0;101670;;;;
2023/03/27 05:34:01;;;;;;;2.7;2.6;;;;;;;2.0;100.0;101680;;;;
2023/03/27 05:35:00;;;;;;;2.7;2.6;;;;;;;2.0;100.0;101680;;;;
2023/03/27 05:36:01;;;;;;;2.7;2.6;;;;;;;2.0;100.0;101680;;;;
2023/03/27 05:37:04;;;;;;;2.7;2.6;;;;;;;2.0;100.0;101680;;;;
2023/03/27 05:38:00;;;;;;;2.7;2.6;;;;;;;2.0;100.0;101680;;;;
2023/03/27 05:39:00;;;;;;;2.7;2.6;;;;;;;2.0;100.0;101680;;;;
2023/03/27 05:40:00;;;;;;;2.7;2.6;;;;;;;2.1;100.0;101680;;;;
2023/03/27 05:41:01;;;;;;;2.7;2.6;;;;;;;2.1;100.0;101680;;;;
2023/03/27 05:42:00;;;;;;;2.7;2.6;;;;;;;2.1;100.0;101680;;;;
2023/03/27 05:43:00;;;;;;;2.7;2.6;;;;;;;2.1;100.0;101680;;;;
2023/03/27 05:44:01;;;;;;;2.7;2.6;;;;;;;2.0;100.0;101690;;;;
2023/03/27 05:45:00;;;;;;;2.7;2.6;;;;;;;2.0;100.0;101690;;;;
2023/03/27 05:46:00;;;;;;;2.7;2.6;;;;;;;2.1;100.0;101690;;;;
2023/03/27 05:47:00;;;;;;;2.7;2.6;;;;;;;2.1;100.0;101690;;;;
2023/03/27 05:48:01;;;;;;;2.7;2.6;;;;;;;2.1;100.0;101690;;;;
2023/03/27 05:49:00;;;;;;;2.7;2.6;;;;;;;2.1;100.0;101690;;;;
2023/03/27 05:50:00;;;;;;;2.7;2.6;;;;;;;2.0;100.0;101690;;;;
2023/03/27 05:51:00;;;;;;;2.7;2.6;;;;;;;2.0;100.0;101690;;;;
2023/03/27 05:52:00;;;;;;;2.7;2.6;;;;;;;2.0;100.0;101690;;;;
2023/03/27 05:53:01;;;;;;;2.7;2.6;;;;;;;2.0;100.0;101690;;;;
2023/03/27 05:54:00;;;;;;;2.7;2.6;;;;;;;2.0;100.0;101700;;;;
2023/03/27 05:55:00;;;;;;;2.7;2.6;;;;;;;2.0;100.0;101700;;;;
2023/03/27 05:56:03;;;;;;;2.7;2.6;;;;;;;2.0;100.0;101700;;;;
2023/03/27 05:57:00;;;;;;;2.7;2.6;;;;;;;2.0;100.0;101700;;;;
2023/03/27 05:58:00;;;;;;;2.7;2.6;;;;;;;2.0;100.0;101700;;;;
2023/03/27 05:59:01;;;;;;;2.7;2.6;;;;;;;2.0;100.0;101700;;;;
2023/03/27 06:00:00;;;;;;;2.6;2.5;;;;;;;2.1;100.0;101700;;;;
2023/03/27 06:01:02;;;;;;;2.6;2.5;;;;;;;2.1;100.0;101700;;;;
2023/03/27 06:02:00;;;;;;;2.6;2.5;;;;;;;2.2;100.0;101710;;;;
2023/03/27 06:03:01;;;;;;;2.6;2.5;;;;;;;2.2;100.0;101710;;;;
2023/03/27 06:04:00;;;;;;;2.6;2.5;;;;;;;2.2;100.0;101710;;;;
2023/03/27 06:05:00;;;;;;;2.6;2.5;;;;;;;2.2;100.0;101710;;;;
2023/03/27 06:06:05;;;;;;;2.6;2.5;;;;;;;2.2;100.0;101710;;;;
2023/03/27 06:07:01;;;;;;;2.6;2.5;;;;;;;2.2;100.0;101710;;;;
2023/03/27 06:08:01;;;;;;;2.6;2.5;;;;;;;2.2;100.0;101710;;;;
2023/03/27 06:09:00;;;;;;;2.6;2.5;;;;;;;2.2;100.0;101710;;;;
2023/03/27 06:10:00;;;;;;;2.6;2.5;;;;;;;2.3;100.0;101720;;;;
2023/03/27 06:11:00;;;;;;;2.6;2.5;;;;;;;2.3;100.0;101720;;;;
2023/03/27 06:12:00;;;;;;;2.6;2.5;;;;;;;2.3;100.0;101710;;;;
2023/03/27 06:13:03;;;;;;;2.6;2.5;;;;;;;2.3;100.0;101710;;;;
2023/03/27 06:14:00;;;;;;;2.6;2.5;;;;;;;2.4;100.0;101710;;;;
2023/03/27 06:15:00;;;;;;;2.6;2.5;;;;;;;2.4;100.0;101710;;;;
2023/03/27 06:16:00;;;;;;;2.6;2.5;;;;;;;2.5;100.0;101720;;;;
2023/03/27 06:17:00;;;;;;;2.6;2.5;;;;;;;2.5;100.0;101720;;;;
2023/03/27 06:18:00;;;;;;;2.6;2.5;;;;;;;2.6;100.0;101720;;;;
2023/03/27 06:19:00;;;;;;;2.6;2.5;;;;;;;2.6;100.0;101720;;;;
2023/03/27 06:20:09;;;;;;;2.7;2.6;;;;;;;2.7;100.0;101720;;;;
2023/03/27 06:21:00;;;;;;;2.7;2.6;;;;;;;2.7;100.0;101720;;;;
2023/03/27 06:22:00;;;;;;;2.7;2.6;;;;;;;2.7;100.0;101720;;;;
2023/03/27 06:23:00;;;;;;;2.7;2.6;;;;;;;2.7;100.0;101720;;;;
2023/03/27 06:24:00;;;;;;;2.7;2.6;;;;;;;2.6;100.0;101720;;;;
2023/03/27 06:25:00;;;;;;;2.7;2.6;;;;;;;2.6;100.0;101720;;;;
2023/03/27 06:26:00;;;;;;;2.7;2.6;;;;;;;2.7;100.0;101720;;;;
2023/03/27 06:27:00;;;;;;;2.7;2.6;;;;;;;2.7;100.0;101720;;;;
2023/03/27 06:28:01;;;;;;;2.7;2.6;;;;;;;2.7;100.0;101730;;;;
2023/03/27 06:29:08;;;;;;;2.7;2.6;;;;;;;2.7;100.0;101730;;;;
2023/03/27 06:30:00;;;;;;;2.7;2.6;;;;;;;2.8;100.0;101730;;;;
2023/03/27 06:31:00;;;;;;;2.7;2.6;;;;;;;2.8;100.0;101730;;;;
2023/03/27 06:32:00;;;;;;;2.7;2.6;;;;;;;2.8;100.0;101740;;;;
2023/03/27 06:33:00;;;;;;;2.7;2.6;;;;;;;2.8;100.0;101740;;;;
2023/03/27 06:34:00;;;;;;;2.7;2.6;;;;;;;2.9;100.0;101740;;;;
2023/03/27 06:35:01;;;;;;;2.7;2.6;;;;;;;2.9;100.0;101740;;;;
2023/03/27 06:36:01;;;;;;;2.7;2.6;;;;;;;2.9;100.0;101740;;;;
2023/03/27 06:37:03;;;;;;;2.7;2.6;;;;;;;2.9;100.0;101740;;;;
2023/03/27 06:38:01;;;;;;;2.7;2.6;;;;;;;2.9;100.0;101750;;;;
2023/03/27 06:39:05;;;;;;;2.7;2.6;;;;;;;2.9;100.0;101750;;;;
2023/03/27 06:40:00;;;;;;;2.5;2.5;;;;;;;2.9;100.0;101750;;;;
2023/03/27 06:41:00;;;;;;;2.5;2.5;;;;;;;2.9;100.0;101750;;;;
2023/03/27 06:42:00;;;;;;;2.5;2.5;;;;;;;2.9;100.0;101750;;;;
2023/03/27 06:43:01;;;;;;;2.5;2.5;;;;;;;2.9;100.0;101750;;;;
2023/03/27 06:44:00;;;;;;;2.5;2.5;;;;;;;2.9;100.0;101750;;;;
2023/03/27 06:45:00;;;;;;;2.5;2.5;;;;;;;2.9;100.0;101750;;;;
2023/03/27 06:46:00;;;;;;;2.5;2.5;;;;;;;2.8;100.0;101760;;;;
2023/03/27 06:47:00;;;;;;;2.5;2.5;;;;;;;2.8;100.0;101760;;;;
2023/03/27 06:48:11;;;;;;;2.5;2.5;;;;;;;2.8;100.0;101760;;;;
2023/03/27 06:49:00;;;;;;;2.5;2.5;;;;;;;2.8;100.0;101760;;;;
2023/03/27 06:50:00;;;;;;;2.5;2.5;;;;;;;2.8;100.0;101760;;;;